sensor_id;sensor_type;location;lat;lon;timestamp;P1;P4;P2;P0;N10;N4;N25;N1;N05;TS
79462;SPS30;68931;47.286;18.756;2023-07-08T00:00:19;0.00;0.00;0.00;0.00;;;;188.33;1.00;
79462;SPS30;68931;47.286;18.756;2023-07-08T00:00:52;0.00;0.00;0.00;0.00;;;;189.00;1.00;
79462;SPS30;68931;47.286;18.756;2023-07-08T00:01:25;0.00;0.00;0.00;0.00;;;;189.00;1.00;
79462;SPS30;68931;47.286;18.756;2023-07-08T00:01:57;0.00;0.00;0.00;0.00;;;;188.33;1.00;
79462;SPS30;68931;47.286;18.756;2023-07-08T00:02:35;0.00;0.00;0.00;0.00;;;;188.00;1.00;
79462;SPS30;68931;47.286;18.756;2023-07-08T00:03:07;0.00;0.00;0.00;0.00;;;;187.00;1.00;
79462;SPS30;68931;47.286;18.756;2023-07-08T00:03:40;0.00;0.00;0.00;0.00;;;;186.00;1.00;
79462;SPS30;68931;47.286;18.756;2023-07-08T00:04:13;0.00;0.00;0.00;0.00;;;;185.00;1.00;
79462;SPS30;68931;47.286;18.756;2023-07-08T00:04:45;0.00;0.00;0.00;0.00;;;;183.67;1.00;
79462;SPS30;68931;47.286;18.756;2023-07-08T00:05:18;0.00;0.00;0.00;0.00;;;;182.33;1.00;
79462;SPS30;68931;47.286;18.756;2023-07-08T00:05:52;0.00;0.00;0.00;0.00;;;;180.67;1.00;
79462;SPS30;68931;47.286;18.756;2023-07-08T00:06:27;0.00;0.00;0.00;0.00;;;;179.33;1.00;
79462;SPS30;68931;47.286;18.756;2023-07-08T00:06:59;0.00;0.00;0.00;0.00;;;;179.00;1.00;
79462;SPS30;68931;47.286;18.756;2023-07-08T00:07:31;0.00;0.00;0.00;0.00;;;;179.00;1.00;
79462;SPS30;68931;47.286;18.756;2023-07-08T00:08:03;0.00;0.00;0.00;0.00;;;;179.33;1.00;
79462;SPS30;68931;47.286;18.756;2023-07-08T00:08:35;0.00;0.00;0.00;0.00;;;;180.00;1.00;
79462;SPS30;68931;47.286;18.756;2023-07-08T00:09:10;0.00;0.00;0.00;0.00;;;;182.00;1.00;
79462;SPS30;68931;47.286;18.756;2023-07-08T00:09:43;0.00;0.00;0.00;0.00;;;;184.00;1.00;
79462;SPS30;68931;47.286;18.756;2023-07-08T00:10:19;0.00;0.00;0.00;0.00;;;;185.00;1.00;
79462;SPS30;68931;47.286;18.756;2023-07-08T00:10:54;0.00;0.00;0.00;0.00;;;;185.33;1.00;
79462;SPS30;68931;47.286;18.756;2023-07-08T00:11:26;0.00;0.00;0.00;0.00;;;;186.00;1.00;
79462;SPS30;68931;47.286;18.756;2023-07-08T00:12:00;0.00;0.00;0.00;0.00;;;;185.00;1.00;
79462;SPS30;68931;47.286;18.756;2023-07-08T00:12:32;0.00;0.00;0.00;0.00;;;;185.00;1.00;
79462;SPS30;68931;47.286;18.756;2023-07-08T00:13:04;0.00;0.00;0.00;0.00;;;;184.33;1.00;
79462;SPS30;68931;47.286;18.756;2023-07-08T00:13:36;0.00;0.00;0.00;0.00;;;;183.33;1.00;
79462;SPS30;68931;47.286;18.756;2023-07-08T00:14:08;0.00;0.00;0.00;0.00;;;;183.00;1.00;
79462;SPS30;68931;47.286;18.756;2023-07-08T00:14:40;0.00;0.00;0.00;0.00;;;;183.00;1.00;
79462;SPS30;68931;47.286;18.756;2023-07-08T00:15:12;0.00;0.00;0.00;0.00;;;;183.00;1.00;
79462;SPS30;68931;47.286;18.756;2023-07-08T00:15:45;0.00;0.00;0.00;0.00;;;;182.00;1.00;
79462;SPS30;68931;47.286;18.756;2023-07-08T00:16:17;0.00;0.00;0.00;0.00;;;;181.33;1.00;
79462;SPS30;68931;47.286;18.756;2023-07-08T00:16:51;0.00;0.00;0.00;0.00;;;;179.67;1.00;
79462;SPS30;68931;47.286;18.756;2023-07-08T00:17:26;0.00;0.00;0.00;0.00;;;;179.00;1.00;
79462;SPS30;68931;47.286;18.756;2023-07-08T00:17:58;0.00;0.00;0.00;0.00;;;;179.00;1.00;
79462;SPS30;68931;47.286;18.756;2023-07-08T00:18:31;0.00;0.00;0.00;0.00;;;;179.00;1.00;
79462;SPS30;68931;47.286;18.756;2023-07-08T00:19:07;0.00;0.00;0.00;0.00;;;;179.00;1.00;
79462;SPS30;68931;47.286;18.756;2023-07-08T00:19:41;0.00;0.00;0.00;0.00;;;;179.67;1.00;
79462;SPS30;68931;47.286;18.756;2023-07-08T00:20:17;0.00;0.00;0.00;0.00;;;;180.67;1.00;
79462;SPS30;68931;47.286;18.756;2023-07-08T00:20:50;0.00;0.00;0.00;0.00;;;;181.00;1.00;
79462;SPS30;68931;47.286;18.756;2023-07-08T00:21:22;0.00;0.00;0.00;0.00;;;;181.00;1.00;
79462;SPS30;68931;47.286;18.756;2023-07-08T00:21:54;0.00;0.00;0.00;0.00;;;;181.00;1.00;
79462;SPS30;68931;47.286;18.756;2023-07-08T00:22:28;0.00;0.00;0.00;0.00;;;;181.00;1.00;
79462;SPS30;68931;47.286;18.756;2023-07-08T00:23:00;0.00;0.00;0.00;0.00;;;;181.00;1.00;
79462;SPS30;68931;47.286;18.756;2023-07-08T00:23:32;0.00;0.00;0.00;0.00;;;;181.00;1.00;
79462;SPS30;68931;47.286;18.756;2023-07-08T00:24:07;0.00;0.00;0.00;0.00;;;;181.00;1.00;
79462;SPS30;68931;47.286;18.756;2023-07-08T00:24:41;0.00;0.00;0.00;0.00;;;;180.67;1.00;
79462;SPS30;68931;47.286;18.756;2023-07-08T00:25:14;0.00;0.00;0.00;0.00;;;;180.00;1.00;
79462;SPS30;68931;47.286;18.756;2023-07-08T00:25:46;0.00;0.00;0.00;0.00;;;;179.67;1.00;
79462;SPS30;68931;47.286;18.756;2023-07-08T00:26:23;0.00;0.00;0.00;0.00;;;;179.00;1.00;
79462;SPS30;68931;47.286;18.756;2023-07-08T00:26:58;0.00;0.00;0.00;0.00;;;;179.00;1.00;
79462;SPS30;68931;47.286;18.756;2023-07-08T00:27:30;0.00;0.00;0.00;0.00;;;;178.67;1.00;
79462;SPS30;68931;47.286;18.756;2023-07-08T00:28:01;0.00;0.00;0.00;0.00;;;;178.00;1.00;
79462;SPS30;68931;47.286;18.756;2023-07-08T00:28:36;0.00;0.00;0.00;0.00;;;;177.00;1.00;
79462;SPS30;68931;47.286;18.756;2023-07-08T00:29:08;0.00;0.00;0.00;0.00;;;;177.00;1.00;
79462;SPS30;68931;47.286;18.756;2023-07-08T00:29:44;0.00;0.00;0.00;0.00;;;;177.00;1.00;
79462;SPS30;68931;47.286;18.756;2023-07-08T00:30:23;0.00;0.00;0.00;0.00;;;;177.00;1.00;
79462;SPS30;68931;47.286;18.756;2023-07-08T00:30:56;0.00;0.00;0.00;0.00;;;;176.00;1.00;
79462;SPS30;68931;47.286;18.756;2023-07-08T00:31:29;0.00;0.00;0.00;0.00;;;;176.00;1.00;
79462;SPS30;68931;47.286;18.756;2023-07-08T00:32:14;0.00;0.00;0.00;0.00;;;;175.67;1.00;
79462;SPS30;68931;47.286;18.756;2023-07-08T00:32:46;0.00;0.00;0.00;0.00;;;;175.00;1.00;
79462;SPS30;68931;47.286;18.756;2023-07-08T00:33:19;0.00;0.00;0.00;0.00;;;;175.00;1.00;
79462;SPS30;68931;47.286;18.756;2023-07-08T00:33:51;0.00;0.00;0.00;0.00;;;;175.00;1.00;
79462;SPS30;68931;47.286;18.756;2023-07-08T00:34:28;0.00;0.00;0.00;0.00;;;;175.00;1.00;
79462;SPS30;68931;47.286;18.756;2023-07-08T00:35:00;0.00;0.00;0.00;0.00;;;;175.00;1.00;
79462;SPS30;68931;47.286;18.756;2023-07-08T00:36:09;0.00;0.00;0.00;0.00;;;;175.00;1.00;
79462;SPS30;68931;47.286;18.756;2023-07-08T00:36:44;0.00;0.00;0.00;0.00;;;;174.33;1.00;
79462;SPS30;68931;47.286;18.756;2023-07-08T00:37:16;0.00;0.00;0.00;0.00;;;;174.00;1.00;
79462;SPS30;68931;47.286;18.756;2023-07-08T00:37:51;0.00;0.00;0.00;0.00;;;;174.00;1.00;
79462;SPS30;68931;47.286;18.756;2023-07-08T00:38:33;0.00;0.00;0.00;0.00;;;;173.67;1.00;
79462;SPS30;68931;47.286;18.756;2023-07-08T00:39:09;0.00;0.00;0.00;0.00;;;;173.00;1.00;
79462;SPS30;68931;47.286;18.756;2023-07-08T00:39:46;0.00;0.00;0.00;0.00;;;;172.00;1.00;
79462;SPS30;68931;47.286;18.756;2023-07-08T00:40:21;0.00;0.00;0.00;0.00;;;;172.00;1.00;
79462;SPS30;68931;47.286;18.756;2023-07-08T00:41:06;0.00;0.00;0.00;0.00;;;;172.00;1.00;
79462;SPS30;68931;47.286;18.756;2023-07-08T00:41:48;0.00;0.00;0.00;0.00;;;;172.00;1.00;
79462;SPS30;68931;47.286;18.756;2023-07-08T00:42:21;0.00;0.00;0.00;0.00;;;;172.00;1.00;
79462;SPS30;68931;47.286;18.756;2023-07-08T00:42:56;0.00;0.00;0.00;0.00;;;;172.67;1.00;
79462;SPS30;68931;47.286;18.756;2023-07-08T00:43:51;0.00;0.00;0.00;0.00;;;;173.00;1.00;
79462;SPS30;68931;47.286;18.756;2023-07-08T00:44:24;0.00;0.00;0.00;0.00;;;;172.00;1.00;
79462;SPS30;68931;47.286;18.756;2023-07-08T00:44:56;0.00;0.00;0.00;0.00;;;;172.00;1.00;
79462;SPS30;68931;47.286;18.756;2023-07-08T00:47:03;0.00;0.00;0.00;0.00;;;;172.00;1.00;
79462;SPS30;68931;47.286;18.756;2023-07-08T00:47:40;0.00;0.00;0.00;0.00;;;;171.33;1.00;
79462;SPS30;68931;47.286;18.756;2023-07-08T00:48:19;0.00;0.00;0.00;0.00;;;;171.00;1.00;
79462;SPS30;68931;47.286;18.756;2023-07-08T00:49:21;0.00;0.00;0.00;0.00;;;;169.67;1.00;
79462;SPS30;68931;47.286;18.756;2023-07-08T00:49:57;0.00;0.00;0.00;0.00;;;;168.00;1.00;
79462;SPS30;68931;47.286;18.756;2023-07-08T00:50:36;0.00;0.00;0.00;0.00;;;;167.00;1.00;
79462;SPS30;68931;47.286;18.756;2023-07-08T00:51:08;0.00;0.00;0.00;0.00;;;;166.33;1.00;
79462;SPS30;68931;47.286;18.756;2023-07-08T00:51:44;0.00;0.00;0.00;0.00;;;;165.33;1.00;
79462;SPS30;68931;47.286;18.756;2023-07-08T00:52:20;0.00;0.00;0.00;0.00;;;;165.00;1.00;
79462;SPS30;68931;47.286;18.756;2023-07-08T00:53:16;0.00;0.00;0.00;0.00;;;;165.00;1.00;
79462;SPS30;68931;47.286;18.756;2023-07-08T00:53:56;0.00;0.00;0.00;0.00;;;;165.00;1.00;
79462;SPS30;68931;47.286;18.756;2023-07-08T00:54:28;0.00;0.00;0.00;0.00;;;;165.00;1.00;
79462;SPS30;68931;47.286;18.756;2023-07-08T00:55:01;0.00;0.00;0.00;0.00;;;;165.00;1.00;
79462;SPS30;68931;47.286;18.756;2023-07-08T00:55:39;0.00;0.00;0.00;0.00;;;;164.67;1.00;
79462;SPS30;68931;47.286;18.756;2023-07-08T00:56:12;0.00;0.00;0.00;0.00;;;;164.33;1.00;
79462;SPS30;68931;47.286;18.756;2023-07-08T00:57:00;0.00;0.00;0.00;0.00;;;;165.00;1.00;
79462;SPS30;68931;47.286;18.756;2023-07-08T00:57:35;0.00;0.00;0.00;0.00;;;;165.00;1.00;
79462;SPS30;68931;47.286;18.756;2023-07-08T00:58:12;0.00;0.00;0.00;0.00;;;;165.00;1.00;
79462;SPS30;68931;47.286;18.756;2023-07-08T00:58:48;0.00;0.00;0.00;0.00;;;;166.00;1.00;
79462;SPS30;68931;47.286;18.756;2023-07-08T01:00:06;0.00;0.00;0.00;0.00;;;;167.00;1.00;
79462;SPS30;68931;47.286;18.756;2023-07-08T01:00:44;0.00;0.00;0.00;0.00;;;;168.00;1.00;
79462;SPS30;68931;47.286;18.756;2023-07-08T01:01:18;0.00;0.00;0.00;0.00;;;;168.00;1.00;
79462;SPS30;68931;47.286;18.756;2023-07-08T01:01:50;0.00;0.00;0.00;0.00;;;;168.00;1.00;
79462;SPS30;68931;47.286;18.756;2023-07-08T01:02:26;0.00;0.00;0.00;0.00;;;;167.00;1.00;
79462;SPS30;68931;47.286;18.756;2023-07-08T01:03:00;0.00;0.00;0.00;0.00;;;;167.00;1.00;
79462;SPS30;68931;47.286;18.756;2023-07-08T01:03:34;0.00;0.00;0.00;0.00;;;;167.00;1.00;
79462;SPS30;68931;47.286;18.756;2023-07-08T01:04:22;0.00;0.00;0.00;0.00;;;;166.00;1.00;
79462;SPS30;68931;47.286;18.756;2023-07-08T01:05:01;0.00;0.00;0.00;0.00;;;;166.00;1.00;
79462;SPS30;68931;47.286;18.756;2023-07-08T01:05:38;0.00;0.00;0.00;0.00;;;;166.00;1.00;
79462;SPS30;68931;47.286;18.756;2023-07-08T01:06:10;0.00;0.00;0.00;0.00;;;;165.67;1.00;
79462;SPS30;68931;47.286;18.756;2023-07-08T01:06:43;0.00;0.00;0.00;0.00;;;;165.00;1.00;
79462;SPS30;68931;47.286;18.756;2023-07-08T01:07:18;0.00;0.00;0.00;0.00;;;;165.00;1.00;
79462;SPS30;68931;47.286;18.756;2023-07-08T01:07:54;0.00;0.00;0.00;0.00;;;;165.00;1.00;
79462;SPS30;68931;47.286;18.756;2023-07-08T01:08:30;0.00;0.00;0.00;0.00;;;;165.00;1.00;
79462;SPS30;68931;47.286;18.756;2023-07-08T01:09:04;0.00;0.00;0.00;0.00;;;;165.00;1.00;
79462;SPS30;68931;47.286;18.756;2023-07-08T01:09:37;0.00;0.00;0.00;0.00;;;;165.00;1.00;
79462;SPS30;68931;47.286;18.756;2023-07-08T01:10:15;0.00;0.00;0.00;0.00;;;;165.00;1.00;
79462;SPS30;68931;47.286;18.756;2023-07-08T01:10:53;0.00;0.00;0.00;0.00;;;;164.00;1.00;
79462;SPS30;68931;47.286;18.756;2023-07-08T01:11:32;0.00;0.00;0.00;0.00;;;;164.00;1.00;
79462;SPS30;68931;47.286;18.756;2023-07-08T01:12:10;0.00;0.00;0.00;0.00;;;;163.67;1.00;
79462;SPS30;68931;47.286;18.756;2023-07-08T01:12:49;0.00;0.00;0.00;0.00;;;;163.00;1.00;
79462;SPS30;68931;47.286;18.756;2023-07-08T01:13:27;0.00;0.00;0.00;0.00;;;;163.00;1.00;
79462;SPS30;68931;47.286;18.756;2023-07-08T01:14:04;0.00;0.00;0.00;0.00;;;;163.00;1.00;
79462;SPS30;68931;47.286;18.756;2023-07-08T01:14:39;0.00;0.00;0.00;0.00;;;;163.00;1.00;
79462;SPS30;68931;47.286;18.756;2023-07-08T01:15:14;0.00;0.00;0.00;0.00;;;;163.00;1.00;
79462;SPS30;68931;47.286;18.756;2023-07-08T01:15:47;0.00;0.00;0.00;0.00;;;;163.00;1.00;
79462;SPS30;68931;47.286;18.756;2023-07-08T01:16:21;0.00;0.00;0.00;0.00;;;;163.00;1.00;
79462;SPS30;68931;47.286;18.756;2023-07-08T01:17:00;0.00;0.00;0.00;0.00;;;;163.00;1.00;
79462;SPS30;68931;47.286;18.756;2023-07-08T01:17:32;0.00;0.00;0.00;0.00;;;;163.00;1.00;
79462;SPS30;68931;47.286;18.756;2023-07-08T01:18:04;0.00;0.00;0.00;0.00;;;;163.00;1.00;
79462;SPS30;68931;47.286;18.756;2023-07-08T01:18:37;0.00;0.00;0.00;0.00;;;;163.00;1.00;
79462;SPS30;68931;47.286;18.756;2023-07-08T01:19:12;0.00;0.00;0.00;0.00;;;;163.00;1.00;
79462;SPS30;68931;47.286;18.756;2023-07-08T01:19:49;0.00;0.00;0.00;0.00;;;;163.67;1.00;
79462;SPS30;68931;47.286;18.756;2023-07-08T01:20:22;0.00;0.00;0.00;0.00;;;;164.00;1.00;
79462;SPS30;68931;47.286;18.756;2023-07-08T01:20:54;0.00;0.00;0.00;0.00;;;;164.00;1.00;
79462;SPS30;68931;47.286;18.756;2023-07-08T01:21:37;0.00;0.00;0.00;0.00;;;;164.00;1.00;
79462;SPS30;68931;47.286;18.756;2023-07-08T01:22:10;0.00;0.00;0.00;0.00;;;;164.00;1.00;
79462;SPS30;68931;47.286;18.756;2023-07-08T01:22:43;0.00;0.00;0.00;0.00;;;;164.00;1.00;
79462;SPS30;68931;47.286;18.756;2023-07-08T01:23:16;0.00;0.00;0.00;0.00;;;;164.00;1.00;
79462;SPS30;68931;47.286;18.756;2023-07-08T01:23:49;0.00;0.00;0.00;0.00;;;;164.00;1.00;
79462;SPS30;68931;47.286;18.756;2023-07-08T01:24:21;0.00;0.00;0.00;0.00;;;;164.00;1.00;
79462;SPS30;68931;47.286;18.756;2023-07-08T01:24:53;0.00;0.00;0.00;0.00;;;;164.00;1.00;
79462;SPS30;68931;47.286;18.756;2023-07-08T01:25:25;0.00;0.00;0.00;0.00;;;;164.00;1.00;
79462;SPS30;68931;47.286;18.756;2023-07-08T01:25:58;0.00;0.00;0.00;0.00;;;;164.00;1.00;
79462;SPS30;68931;47.286;18.756;2023-07-08T01:26:32;0.00;0.00;0.00;0.00;;;;163.00;1.00;
79462;SPS30;68931;47.286;18.756;2023-07-08T01:27:08;0.00;0.00;0.00;0.00;;;;163.00;1.00;
79462;SPS30;68931;47.286;18.756;2023-07-08T01:27:45;0.00;0.00;0.00;0.00;;;;162.67;1.00;
79462;SPS30;68931;47.286;18.756;2023-07-08T01:28:21;0.00;0.00;0.00;0.00;;;;162.00;1.00;
79462;SPS30;68931;47.286;18.756;2023-07-08T01:28:53;0.00;0.00;0.00;0.00;;;;161.33;1.00;
79462;SPS30;68931;47.286;18.756;2023-07-08T01:29:27;0.00;0.00;0.00;0.00;;;;161.00;1.00;
79462;SPS30;68931;47.286;18.756;2023-07-08T01:30:00;0.00;0.00;0.00;0.00;;;;160.33;1.00;
79462;SPS30;68931;47.286;18.756;2023-07-08T01:30:35;0.00;0.00;0.00;0.00;;;;160.00;1.00;
79462;SPS30;68931;47.286;18.756;2023-07-08T01:31:07;0.00;0.00;0.00;0.00;;;;160.00;1.00;
79462;SPS30;68931;47.286;18.756;2023-07-08T01:31:40;0.00;0.00;0.00;0.00;;;;160.33;1.00;
79462;SPS30;68931;47.286;18.756;2023-07-08T01:32:20;0.00;0.00;0.00;0.00;;;;161.00;1.00;
79462;SPS30;68931;47.286;18.756;2023-07-08T01:32:54;0.00;0.00;0.00;0.00;;;;161.67;1.00;
79462;SPS30;68931;47.286;18.756;2023-07-08T01:33:31;0.00;0.00;0.00;0.00;;;;162.00;1.00;
79462;SPS30;68931;47.286;18.756;2023-07-08T01:34:07;0.00;0.00;0.00;0.00;;;;162.33;1.00;
79462;SPS30;68931;47.286;18.756;2023-07-08T01:34:42;0.00;0.00;0.00;0.00;;;;163.00;1.00;
79462;SPS30;68931;47.286;18.756;2023-07-08T01:35:14;0.00;0.00;0.00;0.00;;;;164.00;1.00;
79462;SPS30;68931;47.286;18.756;2023-07-08T01:35:47;0.00;0.00;0.00;0.00;;;;164.00;1.00;
79462;SPS30;68931;47.286;18.756;2023-07-08T01:36:22;0.00;0.00;0.00;0.00;;;;164.00;1.00;
79462;SPS30;68931;47.286;18.756;2023-07-08T01:36:55;0.00;0.00;0.00;0.00;;;;164.00;1.00;
79462;SPS30;68931;47.286;18.756;2023-07-08T01:37:37;0.00;0.00;0.00;0.00;;;;165.00;1.00;
79462;SPS30;68931;47.286;18.756;2023-07-08T01:38:13;0.00;0.00;0.00;0.00;;;;165.00;1.00;
79462;SPS30;68931;47.286;18.756;2023-07-08T01:38:51;0.00;0.00;0.00;0.00;;;;165.00;1.00;
79462;SPS30;68931;47.286;18.756;2023-07-08T01:39:24;0.00;0.00;0.00;0.00;;;;165.00;1.00;
79462;SPS30;68931;47.286;18.756;2023-07-08T01:40:13;0.00;0.00;0.00;0.00;;;;164.00;1.00;
79462;SPS30;68931;47.286;18.756;2023-07-08T01:40:50;0.00;0.00;0.00;0.00;;;;164.00;1.00;
79462;SPS30;68931;47.286;18.756;2023-07-08T01:41:27;0.00;0.00;0.00;0.00;;;;163.00;1.00;
79462;SPS30;68931;47.286;18.756;2023-07-08T01:41:59;0.00;0.00;0.00;0.00;;;;162.00;1.00;
79462;SPS30;68931;47.286;18.756;2023-07-08T01:42:31;0.00;0.00;0.00;0.00;;;;162.00;1.00;
79462;SPS30;68931;47.286;18.756;2023-07-08T01:43:04;0.00;0.00;0.00;0.00;;;;162.00;1.00;
79462;SPS30;68931;47.286;18.756;2023-07-08T01:43:42;0.00;0.00;0.00;0.00;;;;162.00;1.00;
79462;SPS30;68931;47.286;18.756;2023-07-08T01:45:12;0.00;0.00;0.00;0.00;;;;161.00;1.00;
79462;SPS30;68931;47.286;18.756;2023-07-08T01:45:46;0.00;0.00;0.00;0.00;;;;161.00;1.00;
79462;SPS30;68931;47.286;18.756;2023-07-08T01:46:24;0.00;0.00;0.00;0.00;;;;161.00;1.00;
79462;SPS30;68931;47.286;18.756;2023-07-08T01:47:08;0.00;0.00;0.00;0.00;;;;162.00;1.00;
79462;SPS30;68931;47.286;18.756;2023-07-08T01:47:48;0.00;0.00;0.00;0.00;;;;162.67;1.00;
79462;SPS30;68931;47.286;18.756;2023-07-08T01:48:24;0.00;0.00;0.00;0.00;;;;163.33;1.00;
79462;SPS30;68931;47.286;18.756;2023-07-08T01:49:03;0.00;0.00;0.00;0.00;;;;164.00;1.00;
79462;SPS30;68931;47.286;18.756;2023-07-08T01:49:35;0.00;0.00;0.00;0.00;;;;164.00;1.00;
79462;SPS30;68931;47.286;18.756;2023-07-08T01:50:11;0.00;0.00;0.00;0.00;;;;164.00;1.00;
79462;SPS30;68931;47.286;18.756;2023-07-08T01:50:50;0.00;0.00;0.00;0.00;;;;165.00;1.00;
79462;SPS30;68931;47.286;18.756;2023-07-08T01:51:28;0.00;0.00;0.00;0.00;;;;165.33;1.00;
79462;SPS30;68931;47.286;18.756;2023-07-08T01:52:00;0.00;0.00;0.00;0.00;;;;166.00;1.00;
79462;SPS30;68931;47.286;18.756;2023-07-08T01:52:33;0.00;0.00;0.00;0.00;;;;167.00;1.00;
79462;SPS30;68931;47.286;18.756;2023-07-08T01:53:11;0.00;0.00;0.00;0.00;;;;166.67;1.00;
79462;SPS30;68931;47.286;18.756;2023-07-08T01:53:47;0.00;0.00;0.00;0.00;;;;166.00;1.00;
79462;SPS30;68931;47.286;18.756;2023-07-08T01:54:19;0.00;0.00;0.00;0.00;;;;165.00;1.00;
79462;SPS30;68931;47.286;18.756;2023-07-08T01:54:54;0.00;0.00;0.00;0.00;;;;164.33;1.00;
79462;SPS30;68931;47.286;18.756;2023-07-08T01:55:27;0.00;0.00;0.00;0.00;;;;164.00;1.00;
79462;SPS30;68931;47.286;18.756;2023-07-08T01:56:03;0.00;0.00;0.00;0.00;;;;163.00;1.00;
79462;SPS30;68931;47.286;18.756;2023-07-08T01:56:36;0.00;0.00;0.00;0.00;;;;163.00;1.00;
79462;SPS30;68931;47.286;18.756;2023-07-08T01:57:08;0.00;0.00;0.00;0.00;;;;163.00;1.00;
79462;SPS30;68931;47.286;18.756;2023-07-08T01:57:40;0.00;0.00;0.00;0.00;;;;163.00;1.00;
79462;SPS30;68931;47.286;18.756;2023-07-08T01:58:12;0.00;0.00;0.00;0.00;;;;163.00;1.00;
79462;SPS30;68931;47.286;18.756;2023-07-08T01:58:44;0.00;0.00;0.00;0.00;;;;163.00;1.00;
79462;SPS30;68931;47.286;18.756;2023-07-08T01:59:16;0.00;0.00;0.00;0.00;;;;163.00;1.00;
79462;SPS30;68931;47.286;18.756;2023-07-08T01:59:48;0.00;0.00;0.00;0.00;;;;162.67;1.00;
79462;SPS30;68931;47.286;18.756;2023-07-08T02:00:20;0.00;0.00;0.00;0.00;;;;162.00;1.00;
79462;SPS30;68931;47.286;18.756;2023-07-08T02:00:53;0.00;0.00;0.00;0.00;;;;162.00;1.00;
79462;SPS30;68931;47.286;18.756;2023-07-08T02:01:26;0.00;0.00;0.00;0.00;;;;162.00;1.00;
79462;SPS30;68931;47.286;18.756;2023-07-08T02:01:58;0.00;0.00;0.00;0.00;;;;162.00;1.00;
79462;SPS30;68931;47.286;18.756;2023-07-08T02:02:30;0.00;0.00;0.00;0.00;;;;162.00;1.00;
79462;SPS30;68931;47.286;18.756;2023-07-08T02:03:02;0.00;0.00;0.00;0.00;;;;162.00;1.00;
79462;SPS30;68931;47.286;18.756;2023-07-08T02:03:34;0.00;0.00;0.00;0.00;;;;161.00;1.00;
79462;SPS30;68931;47.286;18.756;2023-07-08T02:04:07;0.00;0.00;0.00;0.00;;;;161.00;1.00;
79462;SPS30;68931;47.286;18.756;2023-07-08T02:04:39;0.00;0.00;0.00;0.00;;;;161.00;1.00;
79462;SPS30;68931;47.286;18.756;2023-07-08T02:05:11;0.00;0.00;0.00;0.00;;;;161.00;1.00;
79462;SPS30;68931;47.286;18.756;2023-07-08T02:05:43;0.00;0.00;0.00;0.00;;;;160.00;1.00;
79462;SPS30;68931;47.286;18.756;2023-07-08T02:06:15;0.00;0.00;0.00;0.00;;;;160.00;1.00;
79462;SPS30;68931;47.286;18.756;2023-07-08T02:07:05;0.00;0.00;0.00;0.00;;;;160.00;1.00;
79462;SPS30;68931;47.286;18.756;2023-07-08T02:07:37;0.00;0.00;0.00;0.00;;;;160.67;1.00;
79462;SPS30;68931;47.286;18.756;2023-07-08T02:08:09;0.00;0.00;0.00;0.00;;;;161.00;1.00;
79462;SPS30;68931;47.286;18.756;2023-07-08T02:08:41;0.00;0.00;0.00;0.00;;;;161.00;1.00;
79462;SPS30;68931;47.286;18.756;2023-07-08T02:09:13;0.00;0.00;0.00;0.00;;;;161.00;1.00;
79462;SPS30;68931;47.286;18.756;2023-07-08T02:09:45;0.00;0.00;0.00;0.00;;;;161.00;1.00;
79462;SPS30;68931;47.286;18.756;2023-07-08T02:10:17;0.00;0.00;0.00;0.00;;;;161.00;1.00;
79462;SPS30;68931;47.286;18.756;2023-07-08T02:10:50;0.00;0.00;0.00;0.00;;;;161.67;1.00;
79462;SPS30;68931;47.286;18.756;2023-07-08T02:11:24;0.00;0.00;0.00;0.00;;;;162.00;1.00;
79462;SPS30;68931;47.286;18.756;2023-07-08T02:11:56;0.00;0.00;0.00;0.00;;;;163.00;1.00;
79462;SPS30;68931;47.286;18.756;2023-07-08T02:12:28;0.00;0.00;0.00;0.00;;;;163.00;1.00;
79462;SPS30;68931;47.286;18.756;2023-07-08T02:13:00;0.00;0.00;0.00;0.00;;;;164.00;1.00;
79462;SPS30;68931;47.286;18.756;2023-07-08T02:13:32;0.00;0.00;0.00;0.00;;;;165.33;1.00;
79462;SPS30;68931;47.286;18.756;2023-07-08T02:14:04;0.00;0.00;0.00;0.00;;;;167.67;1.00;
79462;SPS30;68931;47.286;18.756;2023-07-08T02:14:36;0.00;0.00;0.00;0.00;;;;169.00;1.00;
79462;SPS30;68931;47.286;18.756;2023-07-08T02:15:09;0.00;0.00;0.00;0.00;;;;169.00;1.00;
79462;SPS30;68931;47.286;18.756;2023-07-08T02:15:41;0.00;0.00;0.00;0.00;;;;169.00;1.00;
79462;SPS30;68931;47.286;18.756;2023-07-08T02:16:13;0.00;0.00;0.00;0.00;;;;168.33;1.00;
79462;SPS30;68931;47.286;18.756;2023-07-08T02:16:46;0.00;0.00;0.00;0.00;;;;168.00;1.00;
79462;SPS30;68931;47.286;18.756;2023-07-08T02:17:17;0.00;0.00;0.00;0.00;;;;168.00;1.00;
79462;SPS30;68931;47.286;18.756;2023-07-08T02:17:49;0.00;0.00;0.00;0.00;;;;167.67;1.00;
79462;SPS30;68931;47.286;18.756;2023-07-08T02:18:22;0.00;0.00;0.00;0.00;;;;167.00;1.00;
79462;SPS30;68931;47.286;18.756;2023-07-08T02:18:56;0.00;0.00;0.00;0.00;;;;167.00;1.00;
79462;SPS30;68931;47.286;18.756;2023-07-08T02:19:28;0.00;0.00;0.00;0.00;;;;166.33;1.00;
79462;SPS30;68931;47.286;18.756;2023-07-08T02:20:00;0.00;0.00;0.00;0.00;;;;165.67;1.00;
79462;SPS30;68931;47.286;18.756;2023-07-08T02:20:32;0.00;0.00;0.00;0.00;;;;165.00;1.00;
79462;SPS30;68931;47.286;18.756;2023-07-08T02:21:04;0.00;0.00;0.00;0.00;;;;164.33;1.00;
79462;SPS30;68931;47.286;18.756;2023-07-08T02:21:37;0.00;0.00;0.00;0.00;;;;164.00;1.00;
79462;SPS30;68931;47.286;18.756;2023-07-08T02:22:10;0.00;0.00;0.00;0.00;;;;163.00;1.00;
79462;SPS30;68931;47.286;18.756;2023-07-08T02:22:42;0.00;0.00;0.00;0.00;;;;163.00;1.00;
79462;SPS30;68931;47.286;18.756;2023-07-08T02:23:14;0.00;0.00;0.00;0.00;;;;163.00;1.00;
79462;SPS30;68931;47.286;18.756;2023-07-08T02:23:49;0.00;0.00;0.00;0.00;;;;162.00;1.00;
79462;SPS30;68931;47.286;18.756;2023-07-08T02:24:23;0.00;0.00;0.00;0.00;;;;162.00;1.00;
79462;SPS30;68931;47.286;18.756;2023-07-08T02:24:55;0.00;0.00;0.00;0.00;;;;162.00;1.00;
79462;SPS30;68931;47.286;18.756;2023-07-08T02:25:28;0.00;0.00;0.00;0.00;;;;162.00;1.00;
79462;SPS30;68931;47.286;18.756;2023-07-08T02:26:00;0.00;0.00;0.00;0.00;;;;162.00;1.00;
79462;SPS30;68931;47.286;18.756;2023-07-08T02:26:32;0.00;0.00;0.00;0.00;;;;162.00;1.00;
79462;SPS30;68931;47.286;18.756;2023-07-08T02:27:04;0.00;0.00;0.00;0.00;;;;162.00;1.00;
79462;SPS30;68931;47.286;18.756;2023-07-08T02:27:37;0.00;0.00;0.00;0.00;;;;162.00;1.00;
79462;SPS30;68931;47.286;18.756;2023-07-08T02:28:09;0.00;0.00;0.00;0.00;;;;161.33;1.00;
79462;SPS30;68931;47.286;18.756;2023-07-08T02:28:41;0.00;0.00;0.00;0.00;;;;161.00;1.00;
79462;SPS30;68931;47.286;18.756;2023-07-08T02:29:13;0.00;0.00;0.00;0.00;;;;160.67;1.00;
79462;SPS30;68931;47.286;18.756;2023-07-08T02:29:45;0.00;0.00;0.00;0.00;;;;160.00;1.00;
79462;SPS30;68931;47.286;18.756;2023-07-08T02:30:17;0.00;0.00;0.00;0.00;;;;160.00;1.00;
79462;SPS30;68931;47.286;18.756;2023-07-08T02:30:49;0.00;0.00;0.00;0.00;;;;159.33;1.00;
79462;SPS30;68931;47.286;18.756;2023-07-08T02:31:21;0.00;0.00;0.00;0.00;;;;158.67;1.00;
79462;SPS30;68931;47.286;18.756;2023-07-08T02:32:13;0.00;0.00;0.00;0.00;;;;157.33;1.00;
79462;SPS30;68931;47.286;18.756;2023-07-08T02:32:45;0.00;0.00;0.00;0.00;;;;156.67;1.00;
79462;SPS30;68931;47.286;18.756;2023-07-08T02:33:20;0.00;0.00;0.00;0.00;;;;156.00;1.00;
79462;SPS30;68931;47.286;18.756;2023-07-08T02:33:59;0.00;0.00;0.00;0.00;;;;156.00;1.00;
79462;SPS30;68931;47.286;18.756;2023-07-08T02:34:36;0.00;0.00;0.00;0.00;;;;156.67;1.00;
79462;SPS30;68931;47.286;18.756;2023-07-08T02:35:08;0.00;0.00;0.00;0.00;;;;157.00;1.00;
79462;SPS30;68931;47.286;18.756;2023-07-08T02:35:40;0.00;0.00;0.00;0.00;;;;156.00;1.00;
79462;SPS30;68931;47.286;18.756;2023-07-08T02:36:12;0.00;0.00;0.00;0.00;;;;156.00;1.00;
79462;SPS30;68931;47.286;18.756;2023-07-08T02:36:44;0.00;0.00;0.00;0.00;;;;155.33;1.00;
79462;SPS30;68931;47.286;18.756;2023-07-08T02:37:16;0.00;0.00;0.00;0.00;;;;155.00;1.00;
79462;SPS30;68931;47.286;18.756;2023-07-08T02:37:49;0.00;0.00;0.00;0.00;;;;154.00;1.00;
79462;SPS30;68931;47.286;18.756;2023-07-08T02:38:21;0.00;0.00;0.00;0.00;;;;154.00;1.00;
79462;SPS30;68931;47.286;18.756;2023-07-08T02:38:53;0.00;0.00;0.00;0.00;;;;154.00;1.00;
79462;SPS30;68931;47.286;18.756;2023-07-08T02:39:25;0.00;0.00;0.00;0.00;;;;154.00;1.00;
79462;SPS30;68931;47.286;18.756;2023-07-08T02:39:57;0.00;0.00;0.00;0.00;;;;154.00;1.00;